TimeCDT,TemperatureF,Dew PointF,Humidity,Sea Level PressureIn,VisibilityMPH,Wind Direction,Wind SpeedMPH,Gust SpeedMPH,PrecipitationIn,Events,Conditions,WindDirDegrees,DateUTC
12:15 AM,31.1,23.9,75,30.22,10.0,SSE,6.9,-,N/A,,Clear,150,2013-04-02 05:15:00
12:35 AM,31.5,23.7,73,30.22,10.0,SSE,6.9,-,N/A,,Clear,160,2013-04-02 05:35:00
12:55 AM,32.0,24.1,73,30.23,10.0,South,4.6,-,N/A,,Clear,170,2013-04-02 05:55:00
1:15 AM,31.8,23.9,73,30.22,10.0,SSE,4.6,-,N/A,,Clear,160,2013-04-02 06:15:00
1:35 AM,31.5,24.3,75,30.22,10.0,South,4.6,-,N/A,,Clear,170,2013-04-02 06:35:00
1:55 AM,31.5,23.9,74,30.22,10.0,South,4.6,-,N/A,,Clear,170,2013-04-02 06:55:00
2:15 AM,30.7,23.9,76,30.23,10.0,South,4.6,-,N/A,,Clear,180,2013-04-02 07:15:00
2:35 AM,31.1,24.6,77,30.23,10.0,South,5.8,-,N/A,,Clear,180,2013-04-02 07:35:00
2:55 AM,31.3,24.4,76,30.23,10.0,SSW,5.8,-,N/A,,Clear,210,2013-04-02 07:55:00
3:15 AM,32.0,24.3,73,30.23,10.0,SSW,6.9,-,N/A,,Clear,200,2013-04-02 08:15:00
3:35 AM,32.0,23.9,72,30.22,10.0,SSW,6.9,-,N/A,,Clear,200,2013-04-02 08:35:00
3:55 AM,31.5,23.9,74,30.22,10.0,SSW,5.8,-,N/A,,Clear,200,2013-04-02 08:55:00
4:15 AM,31.3,24.4,76,30.22,10.0,SSW,6.9,-,N/A,,Clear,200,2013-04-02 09:15:00
4:35 AM,30.7,24.3,77,30.23,10.0,SSW,4.6,-,N/A,,Clear,200,2013-04-02 09:35:00
4:55 AM,30.6,23.5,75,30.22,10.0,SSW,5.8,-,N/A,,Clear,200,2013-04-02 09:55:00
5:15 AM,30.9,23.0,72,30.23,10.0,SSW,5.8,-,N/A,,Clear,210,2013-04-02 10:15:00
5:35 AM,30.4,23.7,76,30.23,10.0,SSW,5.8,-,N/A,,Clear,200,2013-04-02 10:35:00
5:55 AM,30.2,23.4,76,30.23,10.0,SSW,6.9,-,N/A,,Clear,200,2013-04-02 10:55:00
6:15 AM,30.2,23.0,75,30.23,10.0,SSW,4.6,-,N/A,,Clear,210,2013-04-02 11:15:00
6:35 AM,30.0,23.2,76,30.23,10.0,SSW,3.5,-,N/A,,Clear,200,2013-04-02 11:35:00
6:55 AM,28.9,22.1,76,30.23,10.0,South,3.5,-,N/A,,Clear,180,2013-04-02 11:55:00
7:15 AM,27.7,21.7,78,30.23,10.0,South,3.5,-,N/A,,Clear,170,2013-04-02 12:15:00
7:35 AM,27.5,22.5,81,30.23,10.0,SSE,3.5,-,N/A,,Clear,160,2013-04-02 12:35:00
7:55 AM,27.5,23.2,84,30.24,10.0,SSE,4.6,-,N/A,,Clear,160,2013-04-02 12:55:00
8:15 AM,30.2,24.1,78,30.24,10.0,SSE,4.6,-,N/A,,Clear,160,2013-04-02 13:15:00
8:35 AM,32.0,25.9,78,30.24,10.0,SSE,4.6,-,N/A,,Clear,160,2013-04-02 13:35:00
8:55 AM,34.0,25.7,72,30.24,10.0,SSE,5.8,-,N/A,,Clear,160,2013-04-02 13:55:00
9:35 AM,37.8,25.9,62,30.25,10.0,South,8.1,-,N/A,,Clear,180,2013-04-02 14:35:00
9:55 AM,39.4,26.6,60,30.25,10.0,SSW,4.6,-,N/A,,Clear,200,2013-04-02 14:55:00
10:15 AM,41.4,28.0,59,30.25,10.0,SSW,9.2,-,N/A,,Clear,200,2013-04-02 15:15:00
10:35 AM,43.2,27.9,55,30.25,10.0,South,10.4,-,N/A,,Clear,190,2013-04-02 15:35:00
10:55 AM,44.2,28.2,53,30.25,10.0,SSW,10.4,-,N/A,,Clear,210,2013-04-02 15:55:00
11:15 AM,45.0,27.0,49,30.25,10.0,SSW,10.4,-,N/A,,Clear,210,2013-04-02 16:15:00
11:35 AM,46.4,25.7,44,30.24,10.0,SSW,12.7,-,N/A,,Clear,200,2013-04-02 16:35:00
11:55 AM,47.8,25.3,41,30.24,10.0,SSW,9.2,16.1,N/A,,Clear,200,2013-04-02 16:55:00
12:15 PM,47.5,23.5,39,30.24,10.0,SSW,12.7,18.4,N/A,,Clear,200,2013-04-02 17:15:00
12:35 PM,48.2,23.0,37,30.24,10.0,South,11.5,16.1,N/A,,Clear,180,2013-04-02 17:35:00
12:55 PM,48.4,23.4,37,30.23,10.0,SW,9.2,17.3,N/A,,Clear,220,2013-04-02 17:55:00
1:15 PM,49.5,23.4,36,30.23,10.0,South,10.4,17.3,N/A,,Clear,190,2013-04-02 18:15:00
1:35 PM,49.3,23.0,36,30.22,10.0,SSW,11.5,-,N/A,,Clear,210,2013-04-02 18:35:00
1:55 PM,50.4,22.8,34,30.22,10.0,SSW,9.2,-,N/A,,Clear,210,2013-04-02 18:55:00
2:15 PM,51.4,23.7,34,30.21,10.0,SSW,8.1,-,N/A,,Clear,210,2013-04-02 19:15:00
2:35 PM,51.1,22.5,33,30.21,10.0,South,10.4,17.3,N/A,,Clear,190,2013-04-02 19:35:00
2:55 PM,52.2,22.1,31,30.20,10.0,South,10.4,-,N/A,,Clear,190,2013-04-02 19:55:00
3:15 PM,52.5,22.6,31,30.19,10.0,SW,8.1,-,N/A,,Clear,230,2013-04-02 20:15:00
3:35 PM,52.3,21.7,30,30.19,10.0,SSW,6.9,-,N/A,,Clear,200,2013-04-02 20:35:00
3:55 PM,53.8,23.4,31,30.19,10.0,SW,6.9,-,N/A,,Clear,220,2013-04-02 20:55:00
4:15 PM,53.6,22.8,30,30.18,10.0,SSW,11.5,16.1,N/A,,Clear,200,2013-04-02 21:15:00
4:35 PM,54.3,23.5,30,30.17,10.0,South,5.8,-,N/A,,Clear,180,2013-04-02 21:35:00
4:55 PM,54.7,23.0,29,30.17,10.0,SSE,8.1,-,N/A,,Clear,160,2013-04-02 21:55:00
5:15 PM,54.5,22.6,29,30.17,10.0,SW,5.8,-,N/A,,Clear,220,2013-04-02 22:15:00
5:35 PM,54.1,21.6,28,30.16,10.0,South,8.1,16.1,N/A,,Clear,170,2013-04-02 22:35:00
5:55 PM,54.0,22.5,29,30.16,10.0,South,8.1,-,N/A,,Clear,170,2013-04-02 22:55:00
6:15 PM,53.8,22.8,30,30.17,10.0,SSE,5.8,-,N/A,,Clear,150,2013-04-02 23:15:00
6:35 PM,53.4,22.6,30,30.17,10.0,SSE,10.4,-,N/A,,Clear,160,2013-04-02 23:35:00
6:55 PM,52.9,22.5,31,30.17,10.0,South,9.2,-,N/A,,Clear,180,2013-04-02 23:55:00
7:15 PM,52.2,22.3,31,30.17,10.0,South,6.9,-,N/A,,Clear,170,2013-04-03 00:15:00
7:35 PM,51.1,22.6,33,30.17,10.0,South,6.9,-,N/A,,Clear,170,2013-04-03 00:35:00
7:55 PM,49.1,24.3,38,30.17,10.0,South,5.8,-,N/A,,Clear,170,2013-04-03 00:55:00
8:15 PM,46.6,25.0,43,30.17,10.0,South,5.8,-,N/A,,Clear,170,2013-04-03 01:15:00
8:35 PM,45.3,24.8,45,30.17,10.0,South,8.1,-,N/A,,Clear,170,2013-04-03 01:35:00
8:55 PM,43.3,25.2,49,30.17,10.0,South,9.2,-,N/A,,Clear,170,2013-04-03 01:55:00
9:15 PM,42.6,25.2,50,30.17,10.0,South,10.4,-,N/A,,Clear,170,2013-04-03 02:15:00
9:35 PM,41.4,25.2,53,30.18,10.0,South,8.1,-,N/A,,Clear,180,2013-04-03 02:35:00
9:55 PM,41.0,25.2,53,30.19,10.0,SSW,6.9,-,N/A,,Clear,210,2013-04-03 02:55:00
10:15 PM,39.6,25.2,56,30.20,10.0,SSW,5.8,-,N/A,,Clear,210,2013-04-03 03:15:00
10:35 PM,39.9,25.5,56,30.20,10.0,SW,6.9,-,N/A,,Clear,220,2013-04-03 03:35:00
10:55 PM,40.1,25.7,56,30.20,10.0,SSW,8.1,-,N/A,,Clear,210,2013-04-03 03:55:00
11:15 PM,40.5,25.3,55,30.20,10.0,SSW,6.9,-,N/A,,Clear,210,2013-04-03 04:15:00
11:35 PM,38.7,25.2,58,30.21,10.0,SSW,8.1,-,N/A,,Clear,210,2013-04-03 04:35:00
11:55 PM,37.0,25.0,62,30.21,10.0,SSW,5.8,-,N/A,,Clear,210,2013-04-03 04:55:00